Terminal Aerodrome Forecast
Issued by NWS

Home | Current Version | Previous Version | Text Only | Print | Product List | Glossary On
Versions: 1 2 3 4 5 6 7 8 9 10 11 12 13
490
FTAK31 PAJN 311720
TAFAWG
TAF
PAWG 311720Z 3118/0118 10005KT P6SM VCSH SCT050 OVC080
     FM312000 12008KT P6SM -RA BKN040 OVC060
     FM010600 11007KT P6SM -RA BKN025 OVC040
      AMD LTD TO CLD VIS AND WIND 0106/0115=

USA.gov is the U.S. government's official web portal to all federal, state and local government web resources and services.